sensor_id;sensor_type;location;lat;lon;timestamp;pressure;altitude;pressure_sealevel;temperature
73894;BMP280;62699;50.534;12.784;2022-08-05T00:00:58;96277.91;;;22.52
73894;BMP280;62699;50.534;12.784;2022-08-05T00:06:17;96275.72;;;22.50
73894;BMP280;62699;50.534;12.784;2022-08-05T00:11:37;96278.19;;;21.98
73894;BMP280;62699;50.534;12.784;2022-08-05T00:16:56;96254.78;;;22.16
73894;BMP280;62699;50.534;12.784;2022-08-05T00:22:16;96255.53;;;21.98
73894;BMP280;62699;50.534;12.784;2022-08-05T00:27:34;96259.69;;;21.89
73894;BMP280;62699;50.534;12.784;2022-08-05T00:32:55;96256.50;;;21.83
73894;BMP280;62699;50.534;12.784;2022-08-05T00:38:14;96251.88;;;21.76
73894;BMP280;62699;50.534;12.784;2022-08-05T00:43:34;96254.34;;;21.72
73894;BMP280;62699;50.534;12.784;2022-08-05T00:49:04;96251.16;;;21.76
73894;BMP280;62699;50.534;12.784;2022-08-05T00:54:24;96255.53;;;21.98
73894;BMP280;62699;50.534;12.784;2022-08-05T00:59:42;96245.59;;;21.37
73894;BMP280;62699;50.534;12.784;2022-08-05T01:05:03;96244.94;;;21.56
73894;BMP280;62699;50.534;12.784;2022-08-05T01:10:28;96252.63;;;21.86
73894;BMP280;62699;50.534;12.784;2022-08-05T01:16:23;96242.91;;;21.56
73894;BMP280;62699;50.534;12.784;2022-08-05T01:21:54;96238.84;;;21.48
73894;BMP280;62699;50.534;12.784;2022-08-05T01:33:06;96233.09;;;21.63
73894;BMP280;62699;50.534;12.784;2022-08-05T01:38:26;96237.22;;;21.45
73894;BMP280;62699;50.534;12.784;2022-08-05T01:43:47;96232.25;;;21.51
73894;BMP280;62699;50.534;12.784;2022-08-05T01:49:10;96228.34;;;21.73
73894;BMP280;62699;50.534;12.784;2022-08-05T01:55:04;96218.13;;;21.73
73894;BMP280;62699;50.534;12.784;2022-08-05T02:00:26;96219.81;;;21.40
73894;BMP280;62699;50.534;12.784;2022-08-05T02:05:52;96210.06;;;21.10
73894;BMP280;62699;50.534;12.784;2022-08-05T02:11:15;96208.78;;;21.11
73894;BMP280;62699;50.534;12.784;2022-08-05T02:16:46;96204.19;;;20.87
73894;BMP280;62699;50.534;12.784;2022-08-05T02:22:18;96202.00;;;20.86
73894;BMP280;62699;50.534;12.784;2022-08-05T02:27:39;96197.94;;;21.04
73894;BMP280;62699;50.534;12.784;2022-08-05T02:32:59;96191.56;;;21.01
73894;BMP280;62699;50.534;12.784;2022-08-05T02:38:35;96193.16;;;21.04
73894;BMP280;62699;50.534;12.784;2022-08-05T02:43:57;96191.78;;;20.86
73894;BMP280;62699;50.534;12.784;2022-08-05T02:49:16;96192.69;;;20.62
73894;BMP280;62699;50.534;12.784;2022-08-05T02:54:38;96186.22;;;20.67
73894;BMP280;62699;50.534;12.784;2022-08-05T02:59:58;96183.75;;;20.62
73894;BMP280;62699;50.534;12.784;2022-08-05T03:05:18;96187.06;;;20.60
73894;BMP280;62699;50.534;12.784;2022-08-05T03:10:37;96181.72;;;20.62
73894;BMP280;62699;50.534;12.784;2022-08-05T03:16:00;96182.41;;;20.53
73894;BMP280;62699;50.534;12.784;2022-08-05T03:21:19;96171.84;;;20.40
73894;BMP280;62699;50.534;12.784;2022-08-05T03:26:38;96175.53;;;20.35
73894;BMP280;62699;50.534;12.784;2022-08-05T03:31:57;96179.94;;;20.74
73894;BMP280;62699;50.534;12.784;2022-08-05T03:37:18;96182.44;;;20.89
73894;BMP280;62699;50.534;12.784;2022-08-05T03:42:38;96186.03;;;20.92
73894;BMP280;62699;50.534;12.784;2022-08-05T03:48:01;96178.00;;;20.94
73894;BMP280;62699;50.534;12.784;2022-08-05T03:53:36;96179.81;;;20.82
73894;BMP280;62699;50.534;12.784;2022-08-05T03:58:59;96184.16;;;21.21
73894;BMP280;62699;50.534;12.784;2022-08-05T04:04:20;96188.38;;;21.32
73894;BMP280;62699;50.534;12.784;2022-08-05T04:09:40;96182.16;;;21.41
73894;BMP280;62699;50.534;12.784;2022-08-05T04:14:59;96175.41;;;21.42
73894;BMP280;62699;50.534;12.784;2022-08-05T04:20:21;96171.81;;;21.58
73894;BMP280;62699;50.534;12.784;2022-08-05T04:25:40;96158.09;;;21.49
73894;BMP280;62699;50.534;12.784;2022-08-05T04:31:00;96154.06;;;21.31
73894;BMP280;62699;50.534;12.784;2022-08-05T04:36:19;96158.38;;;21.34
73894;BMP280;62699;50.534;12.784;2022-08-05T04:41:39;96173.13;;;21.67
73894;BMP280;62699;50.534;12.784;2022-08-05T04:46:58;96174.16;;;21.81
73894;BMP280;62699;50.534;12.784;2022-08-05T04:52:18;96174.88;;;21.72
73894;BMP280;62699;50.534;12.784;2022-08-05T04:57:37;96172.66;;;21.42
73894;BMP280;62699;50.534;12.784;2022-08-05T05:02:57;96170.84;;;22.02
73894;BMP280;62699;50.534;12.784;2022-08-05T05:08:16;96162.91;;;23.17
73894;BMP280;62699;50.534;12.784;2022-08-05T05:13:36;96180.00;;;26.54
73894;BMP280;62699;50.534;12.784;2022-08-05T05:18:55;96172.34;;;29.74
73894;BMP280;62699;50.534;12.784;2022-08-05T05:24:15;96175.75;;;31.99
73894;BMP280;62699;50.534;12.784;2022-08-05T05:29:34;96189.31;;;33.47
73894;BMP280;62699;50.534;12.784;2022-08-05T05:34:54;96258.91;;;30.61
73894;BMP280;62699;50.534;12.784;2022-08-05T05:40:15;96270.38;;;29.79
73894;BMP280;62699;50.534;12.784;2022-08-05T05:45:35;96259.16;;;27.15
73894;BMP280;62699;50.534;12.784;2022-08-05T05:50:54;96289.50;;;26.36
73894;BMP280;62699;50.534;12.784;2022-08-05T05:56:14;96293.19;;;27.74
73894;BMP280;62699;50.534;12.784;2022-08-05T06:01:35;96306.72;;;28.40
73894;BMP280;62699;50.534;12.784;2022-08-05T06:06:59;96314.09;;;28.96
73894;BMP280;62699;50.534;12.784;2022-08-05T06:12:18;96328.47;;;28.93
73894;BMP280;62699;50.534;12.784;2022-08-05T06:17:38;96332.88;;;27.79
73894;BMP280;62699;50.534;12.784;2022-08-05T06:22:57;96343.41;;;28.86
73894;BMP280;62699;50.534;12.784;2022-08-05T06:28:17;96359.50;;;28.44
73894;BMP280;62699;50.534;12.784;2022-08-05T06:33:38;96364.13;;;29.31
73894;BMP280;62699;50.534;12.784;2022-08-05T06:39:03;96370.16;;;29.10
73894;BMP280;62699;50.534;12.784;2022-08-05T06:44:31;96348.19;;;30.34
73894;BMP280;62699;50.534;12.784;2022-08-05T06:49:52;96351.09;;;29.18
73894;BMP280;62699;50.534;12.784;2022-08-05T06:55:11;96349.28;;;29.40
73894;BMP280;62699;50.534;12.784;2022-08-05T07:00:31;96359.28;;;30.34
73894;BMP280;62699;50.534;12.784;2022-08-05T07:05:51;96374.28;;;28.64
73894;BMP280;62699;50.534;12.784;2022-08-05T07:11:11;96375.53;;;28.03
73894;BMP280;62699;50.534;12.784;2022-08-05T07:16:30;96400.06;;;27.95
73894;BMP280;62699;50.534;12.784;2022-08-05T07:22:08;96397.50;;;25.93
73894;BMP280;62699;50.534;12.784;2022-08-05T07:27:27;96410.25;;;25.87
73894;BMP280;62699;50.534;12.784;2022-08-05T07:32:47;96420.19;;;25.80
73894;BMP280;62699;50.534;12.784;2022-08-05T07:38:06;96432.78;;;25.72
73894;BMP280;62699;50.534;12.784;2022-08-05T07:43:26;96436.28;;;26.44
73894;BMP280;62699;50.534;12.784;2022-08-05T07:48:45;96443.63;;;26.76
73894;BMP280;62699;50.534;12.784;2022-08-05T07:54:05;96439.72;;;27.86
73894;BMP280;62699;50.534;12.784;2022-08-05T07:59:24;96459.00;;;27.84
73894;BMP280;62699;50.534;12.784;2022-08-05T08:04:45;96449.34;;;27.05
73894;BMP280;62699;50.534;12.784;2022-08-05T08:10:04;96423.94;;;27.48
73894;BMP280;62699;50.534;12.784;2022-08-05T08:15:24;96415.34;;;28.68
73894;BMP280;62699;50.534;12.784;2022-08-05T08:20:43;96410.59;;;32.27
73894;BMP280;62699;50.534;12.784;2022-08-05T08:26:03;96413.78;;;33.37
73894;BMP280;62699;50.534;12.784;2022-08-05T08:31:22;96421.16;;;34.71
73894;BMP280;62699;50.534;12.784;2022-08-05T08:36:42;96425.28;;;33.50
73894;BMP280;62699;50.534;12.784;2022-08-05T08:42:01;96430.94;;;32.55
73894;BMP280;62699;50.534;12.784;2022-08-05T08:47:23;96443.34;;;29.83
73894;BMP280;62699;50.534;12.784;2022-08-05T08:52:49;96436.34;;;30.33
73894;BMP280;62699;50.534;12.784;2022-08-05T08:58:14;96448.56;;;31.53
73894;BMP280;62699;50.534;12.784;2022-08-05T09:03:34;96436.78;;;29.43
73894;BMP280;62699;50.534;12.784;2022-08-05T09:08:53;96432.34;;;28.47
73894;BMP280;62699;50.534;12.784;2022-08-05T09:14:13;96428.78;;;28.89
73894;BMP280;62699;50.534;12.784;2022-08-05T09:19:48;96423.41;;;28.19
73894;BMP280;62699;50.534;12.784;2022-08-05T09:25:24;96420.59;;;29.07
73894;BMP280;62699;50.534;12.784;2022-08-05T09:30:54;96439.94;;;28.91
73894;BMP280;62699;50.534;12.784;2022-08-05T09:36:17;96436.06;;;27.95
73894;BMP280;62699;50.534;12.784;2022-08-05T09:41:57;96426.38;;;29.13
73894;BMP280;62699;50.534;12.784;2022-08-05T09:47:21;96429.44;;;29.19
73894;BMP280;62699;50.534;12.784;2022-08-05T09:52:41;96448.88;;;29.34
73894;BMP280;62699;50.534;12.784;2022-08-05T09:58:09;96426.59;;;29.17
73894;BMP280;62699;50.534;12.784;2022-08-05T10:03:30;96404.53;;;30.54
73894;BMP280;62699;50.534;12.784;2022-08-05T10:09:25;96415.97;;;30.62
73894;BMP280;62699;50.534;12.784;2022-08-05T10:15:20;96423.59;;;31.77
73894;BMP280;62699;50.534;12.784;2022-08-05T10:20:48;96428.81;;;30.53
73894;BMP280;62699;50.534;12.784;2022-08-05T10:26:13;96422.13;;;30.78
73894;BMP280;62699;50.534;12.784;2022-08-05T10:31:33;96419.91;;;29.71
73894;BMP280;62699;50.534;12.784;2022-08-05T10:37:03;96411.50;;;30.55
73894;BMP280;62699;50.534;12.784;2022-08-05T10:42:23;96416.56;;;30.41
73894;BMP280;62699;50.534;12.784;2022-08-05T10:47:44;96419.28;;;30.76
73894;BMP280;62699;50.534;12.784;2022-08-05T10:53:04;96418.47;;;30.91
73894;BMP280;62699;50.534;12.784;2022-08-05T10:58:23;96411.91;;;32.24
73894;BMP280;62699;50.534;12.784;2022-08-05T11:09:20;96399.47;;;31.42
73894;BMP280;62699;50.534;12.784;2022-08-05T11:14:41;96394.81;;;31.29
73894;BMP280;62699;50.534;12.784;2022-08-05T11:20:07;96401.44;;;32.93
73894;BMP280;62699;50.534;12.784;2022-08-05T11:25:39;96390.31;;;31.81
73894;BMP280;62699;50.534;12.784;2022-08-05T11:36:55;96384.63;;;31.99
73894;BMP280;62699;50.534;12.784;2022-08-05T11:42:24;96387.03;;;33.28
73894;BMP280;62699;50.534;12.784;2022-08-05T11:47:44;96374.00;;;32.15
73894;BMP280;62699;50.534;12.784;2022-08-05T11:53:07;96380.13;;;32.80
73894;BMP280;62699;50.534;12.784;2022-08-05T11:58:45;96392.16;;;33.93
73894;BMP280;62699;50.534;12.784;2022-08-05T12:04:05;96374.34;;;33.79
73894;BMP280;62699;50.534;12.784;2022-08-05T12:09:24;96371.19;;;34.22
73894;BMP280;62699;50.534;12.784;2022-08-05T12:14:47;96352.84;;;32.77
73894;BMP280;62699;50.534;12.784;2022-08-05T12:20:06;96361.97;;;33.86
73894;BMP280;62699;50.534;12.784;2022-08-05T12:25:26;96366.75;;;33.54
73894;BMP280;62699;50.534;12.784;2022-08-05T12:30:48;96351.16;;;32.91
73894;BMP280;62699;50.534;12.784;2022-08-05T12:36:08;96356.44;;;33.32
73894;BMP280;62699;50.534;12.784;2022-08-05T12:41:34;96358.63;;;34.23
73894;BMP280;62699;50.534;12.784;2022-08-05T12:46:55;96368.38;;;32.60
73894;BMP280;62699;50.534;12.784;2022-08-05T12:52:16;96358.59;;;33.08
73894;BMP280;62699;50.534;12.784;2022-08-05T12:57:35;96361.00;;;32.94
73894;BMP280;62699;50.534;12.784;2022-08-05T13:02:55;96355.22;;;31.50
73894;BMP280;62699;50.534;12.784;2022-08-05T13:08:17;96341.06;;;31.44
73894;BMP280;62699;50.534;12.784;2022-08-05T13:13:37;96333.06;;;31.76
73894;BMP280;62699;50.534;12.784;2022-08-05T13:19:00;96326.78;;;33.45
73894;BMP280;62699;50.534;12.784;2022-08-05T13:24:23;96343.66;;;34.42
73894;BMP280;62699;50.534;12.784;2022-08-05T13:29:42;96337.22;;;35.47
73894;BMP280;62699;50.534;12.784;2022-08-05T13:35:03;96339.69;;;35.70
73894;BMP280;62699;50.534;12.784;2022-08-05T13:40:23;96331.84;;;33.53
73894;BMP280;62699;50.534;12.784;2022-08-05T13:45:42;96330.19;;;33.16
73894;BMP280;62699;50.534;12.784;2022-08-05T13:51:11;96316.09;;;33.97
73894;BMP280;62699;50.534;12.784;2022-08-05T13:56:31;96323.53;;;33.86
73894;BMP280;62699;50.534;12.784;2022-08-05T14:01:52;96312.72;;;33.13
73894;BMP280;62699;50.534;12.784;2022-08-05T14:07:12;96308.13;;;32.73
73894;BMP280;62699;50.534;12.784;2022-08-05T14:12:31;96322.38;;;33.66
73894;BMP280;62699;50.534;12.784;2022-08-05T14:17:51;96312.91;;;33.79
73894;BMP280;62699;50.534;12.784;2022-08-05T14:23:10;96303.41;;;33.60
73894;BMP280;62699;50.534;12.784;2022-08-05T14:28:29;96306.88;;;33.03
73894;BMP280;62699;50.534;12.784;2022-08-05T14:33:48;96315.19;;;33.01
73894;BMP280;62699;50.534;12.784;2022-08-05T14:39:08;96306.63;;;32.44
73894;BMP280;62699;50.534;12.784;2022-08-05T14:44:28;96315.59;;;32.66
73894;BMP280;62699;50.534;12.784;2022-08-05T14:49:47;96322.75;;;33.82
73894;BMP280;62699;50.534;12.784;2022-08-05T14:55:07;96315.97;;;33.06
73894;BMP280;62699;50.534;12.784;2022-08-05T15:00:26;96317.00;;;33.46
73894;BMP280;62699;50.534;12.784;2022-08-05T15:05:46;96308.00;;;32.69
73894;BMP280;62699;50.534;12.784;2022-08-05T15:11:05;96315.53;;;31.71
73894;BMP280;62699;50.534;12.784;2022-08-05T15:16:26;96326.50;;;31.46
73894;BMP280;62699;50.534;12.784;2022-08-05T15:21:45;96329.75;;;31.19
73894;BMP280;62699;50.534;12.784;2022-08-05T15:27:05;96337.25;;;31.14
73894;BMP280;62699;50.534;12.784;2022-08-05T15:32:24;96338.47;;;30.89
73894;BMP280;62699;50.534;12.784;2022-08-05T15:37:44;96338.09;;;30.99
73894;BMP280;62699;50.534;12.784;2022-08-05T15:43:03;96344.16;;;30.74
73894;BMP280;62699;50.534;12.784;2022-08-05T15:48:22;96345.53;;;31.12
73894;BMP280;62699;50.534;12.784;2022-08-05T15:53:42;96347.88;;;30.80
73894;BMP280;62699;50.534;12.784;2022-08-05T15:59:00;96354.13;;;30.61
73894;BMP280;62699;50.534;12.784;2022-08-05T16:04:26;96353.09;;;30.35
73894;BMP280;62699;50.534;12.784;2022-08-05T16:09:44;96360.25;;;30.22
73894;BMP280;62699;50.534;12.784;2022-08-05T16:15:04;96383.03;;;30.01
73894;BMP280;62699;50.534;12.784;2022-08-05T16:20:24;96386.81;;;29.59
73894;BMP280;62699;50.534;12.784;2022-08-05T16:25:43;96390.75;;;29.54
73894;BMP280;62699;50.534;12.784;2022-08-05T16:31:04;96405.25;;;30.01
73894;BMP280;62699;50.534;12.784;2022-08-05T16:36:23;96418.97;;;29.97
73894;BMP280;62699;50.534;12.784;2022-08-05T16:41:43;96417.44;;;29.45
73894;BMP280;62699;50.534;12.784;2022-08-05T16:47:02;96419.06;;;29.35
73894;BMP280;62699;50.534;12.784;2022-08-05T16:52:23;96434.53;;;29.09
73894;BMP280;62699;50.534;12.784;2022-08-05T16:57:42;96435.69;;;29.04
73894;BMP280;62699;50.534;12.784;2022-08-05T17:03:02;96442.34;;;29.28
73894;BMP280;62699;50.534;12.784;2022-08-05T17:08:22;96442.97;;;29.11
73894;BMP280;62699;50.534;12.784;2022-08-05T17:13:42;96449.78;;;28.79
73894;BMP280;62699;50.534;12.784;2022-08-05T17:19:01;96448.63;;;28.54
73894;BMP280;62699;50.534;12.784;2022-08-05T17:24:21;96475.50;;;27.95
73894;BMP280;62699;50.534;12.784;2022-08-05T17:29:40;96482.22;;;27.38
73894;BMP280;62699;50.534;12.784;2022-08-05T17:35:00;96486.38;;;27.25
73894;BMP280;62699;50.534;12.784;2022-08-05T17:40:18;96524.34;;;27.00
73894;BMP280;62699;50.534;12.784;2022-08-05T17:45:38;96570.22;;;25.75
73894;BMP280;62699;50.534;12.784;2022-08-05T17:50:57;96598.41;;;24.99
73894;BMP280;62699;50.534;12.784;2022-08-05T17:56:17;96620.63;;;24.39
73894;BMP280;62699;50.534;12.784;2022-08-05T18:01:36;96628.75;;;23.59
73894;BMP280;62699;50.534;12.784;2022-08-05T18:06:55;96641.19;;;23.88
73894;BMP280;62699;50.534;12.784;2022-08-05T18:12:14;96669.53;;;23.24
73894;BMP280;62699;50.534;12.784;2022-08-05T18:17:35;96665.75;;;23.19
73894;BMP280;62699;50.534;12.784;2022-08-05T18:22:54;96684.00;;;22.52
73894;BMP280;62699;50.534;12.784;2022-08-05T18:28:14;96706.03;;;22.00
73894;BMP280;62699;50.534;12.784;2022-08-05T18:33:35;96706.00;;;21.49
73894;BMP280;62699;50.534;12.784;2022-08-05T18:38:55;96720.84;;;20.96
73894;BMP280;62699;50.534;12.784;2022-08-05T18:44:14;96726.75;;;20.53
73894;BMP280;62699;50.534;12.784;2022-08-05T18:49:34;96757.50;;;20.61
73894;BMP280;62699;50.534;12.784;2022-08-05T18:55:12;96766.91;;;20.83
73894;BMP280;62699;50.534;12.784;2022-08-05T19:00:31;96787.84;;;20.95
73894;BMP280;62699;50.534;12.784;2022-08-05T19:05:50;96800.06;;;20.54
73894;BMP280;62699;50.534;12.784;2022-08-05T19:11:10;96807.03;;;20.25
73894;BMP280;62699;50.534;12.784;2022-08-05T19:16:29;96799.91;;;20.45
73894;BMP280;62699;50.534;12.784;2022-08-05T19:21:48;96812.19;;;20.29
73894;BMP280;62699;50.534;12.784;2022-08-05T19:27:07;96814.88;;;20.91
73894;BMP280;62699;50.534;12.784;2022-08-05T19:32:28;96811.00;;;20.94
73894;BMP280;62699;50.534;12.784;2022-08-05T19:37:47;96819.53;;;21.06
73894;BMP280;62699;50.534;12.784;2022-08-05T19:43:07;96814.34;;;20.85
73894;BMP280;62699;50.534;12.784;2022-08-05T19:48:26;96820.91;;;20.82
73894;BMP280;62699;50.534;12.784;2022-08-05T19:53:45;96816.03;;;20.73
73894;BMP280;62699;50.534;12.784;2022-08-05T19:59:04;96810.28;;;20.54
73894;BMP280;62699;50.534;12.784;2022-08-05T20:04:24;96825.88;;;19.91
73894;BMP280;62699;50.534;12.784;2022-08-05T20:09:43;96836.25;;;19.85
73894;BMP280;62699;50.534;12.784;2022-08-05T20:15:03;96839.66;;;20.46
73894;BMP280;62699;50.534;12.784;2022-08-05T20:20:23;96837.16;;;20.02
73894;BMP280;62699;50.534;12.784;2022-08-05T20:25:44;96841.72;;;20.08
73894;BMP280;62699;50.534;12.784;2022-08-05T20:31:03;96851.56;;;19.73
73894;BMP280;62699;50.534;12.784;2022-08-05T20:36:23;96869.59;;;19.83
73894;BMP280;62699;50.534;12.784;2022-08-05T20:41:43;96862.75;;;19.24
73894;BMP280;62699;50.534;12.784;2022-08-05T20:47:05;96861.81;;;19.14
73894;BMP280;62699;50.534;12.784;2022-08-05T20:52:25;96877.88;;;18.89
73894;BMP280;62699;50.534;12.784;2022-08-05T20:57:44;96873.63;;;18.73
73894;BMP280;62699;50.534;12.784;2022-08-05T21:03:04;96879.19;;;18.88
73894;BMP280;62699;50.534;12.784;2022-08-05T21:08:28;96883.66;;;19.21
73894;BMP280;62699;50.534;12.784;2022-08-05T21:13:48;96892.03;;;19.16
73894;BMP280;62699;50.534;12.784;2022-08-05T21:19:09;96933.38;;;18.63
73894;BMP280;62699;50.534;12.784;2022-08-05T21:24:28;96999.75;;;18.38
73894;BMP280;62699;50.534;12.784;2022-08-05T21:29:54;96984.13;;;17.70
73894;BMP280;62699;50.534;12.784;2022-08-05T21:35:17;96905.44;;;17.80
73894;BMP280;62699;50.534;12.784;2022-08-05T21:40:36;96921.31;;;18.79
73894;BMP280;62699;50.534;12.784;2022-08-05T21:45:55;96955.81;;;19.41
73894;BMP280;62699;50.534;12.784;2022-08-05T21:51:19;96988.56;;;19.92
73894;BMP280;62699;50.534;12.784;2022-08-05T21:56:38;96956.13;;;20.72
73894;BMP280;62699;50.534;12.784;2022-08-05T22:01:57;96977.44;;;21.51
73894;BMP280;62699;50.534;12.784;2022-08-05T22:07:19;96979.22;;;21.88
73894;BMP280;62699;50.534;12.784;2022-08-05T22:12:40;96971.13;;;21.65
73894;BMP280;62699;50.534;12.784;2022-08-05T22:17:59;96991.38;;;20.60
73894;BMP280;62699;50.534;12.784;2022-08-05T22:23:18;96980.72;;;19.73
73894;BMP280;62699;50.534;12.784;2022-08-05T22:28:56;96960.19;;;19.36
73894;BMP280;62699;50.534;12.784;2022-08-05T22:34:16;96970.00;;;20.51
73894;BMP280;62699;50.534;12.784;2022-08-05T22:39:35;97002.38;;;21.23
73894;BMP280;62699;50.534;12.784;2022-08-05T22:44:55;97010.78;;;21.17
73894;BMP280;62699;50.534;12.784;2022-08-05T22:50:14;97012.28;;;21.10
73894;BMP280;62699;50.534;12.784;2022-08-05T22:55:33;97023.59;;;21.14
73894;BMP280;62699;50.534;12.784;2022-08-05T23:00:52;97023.59;;;21.14
73894;BMP280;62699;50.534;12.784;2022-08-05T23:06:11;96987.31;;;20.99
73894;BMP280;62699;50.534;12.784;2022-08-05T23:11:30;97012.91;;;21.34
73894;BMP280;62699;50.534;12.784;2022-08-05T23:16:50;97003.97;;;20.71
73894;BMP280;62699;50.534;12.784;2022-08-05T23:22:28;97022.50;;;20.04
73894;BMP280;62699;50.534;12.784;2022-08-05T23:27:47;97048.66;;;19.69
73894;BMP280;62699;50.534;12.784;2022-08-05T23:33:06;97066.56;;;18.52
73894;BMP280;62699;50.534;12.784;2022-08-05T23:38:25;97047.56;;;19.08
73894;BMP280;62699;50.534;12.784;2022-08-05T23:43:44;97037.44;;;18.67
73894;BMP280;62699;50.534;12.784;2022-08-05T23:49:04;97030.06;;;18.34
73894;BMP280;62699;50.534;12.784;2022-08-05T23:54:27;97023.59;;;19.14
73894;BMP280;62699;50.534;12.784;2022-08-05T23:59:47;97032.28;;;19.84
